Medina, Texas
Current Conditions -  °F | °C
As of 9:35 PM on Friday 19 Dec 2014 (Local Time) from KERV Reporting Station
Clear Clear  
Wind Chill: 47°   Ceiling: Unl
Heat Index: 47°   Visibility: 10mi
Dew Point: 44°   Wind: 3mph
Humidity: 87%   Direction: 40°NE
Pressure: 30.16"   Gusts: NA
Location:  29.8°N, 99.25°W
Report Text: KERV 200335Z AUTO 04003KT 10SM CLR 09/07 A3016 RMK AO2 T00860066
Loading
Personal Weather Stations






























Interactive Weather Map New forecast layout! Learn more

10-Day Weather Forecast

Advertisements
Track Severe Weather on mobile